CYQI

Yarmouth Airport

Yarmouth, , Canada
TAF CYQI 160538Z 1606/1618 36005KT P6SM SKC BECMG 1608/1610 04008KT BECMG 1612/1614 08008KT RMK NXT FCST BY 161200Z
Issued Valid From Valid To
Dec-16 @ 05:38 UTC
(13 minutes ago)
Dec-16 @ 06:00 UTC
(in 9 minutes)
Dec-16 @ 18:00 UTC
(in 12 hours)
Dec-16 @ 06:00 to Dec-16 @ 08:00
TAF CYQI 160538Z 1606/1618 36005KT P6SM SKC
Wind Visibility Clouds
360° at 5 knots Greater than 6 miles
  • Clear skies
Becoming Dec-16 @ 08:00 to Dec-16 @ 12:00
BECMG 1608/1610 04008KT
Wind Visibility Clouds
40° at 8 knots Greater than 6 miles
  • Clear skies
Becoming Dec-16 @ 12:00 to Dec-16 @ 18:00
BECMG 1612/1614 08008KT RMK NXT FCST BY 161200Z
Wind Visibility Clouds
80° at 8 knots Greater than 6 miles
  • Clear skies
TAF CYQI 160538Z 1606/1618 36005KT P6SM SKC BECMG 1608/1610 04008KT BECMG 1612/1614 08008KT RMK NXT FCST BY 161200Z
Issued Dec-16 @ 05:38 UTC
(13 minutes ago)
Valid From Dec-16 @ 06:00 UTC
(in 9 minutes)
Valid To Dec-16 @ 18:00 UTC
(in 12 hours)
Dec-16 @ 06:00 - Dec-16 @ 08:00
Wind Visibility
360° at 5 knots Greater than 6 miles
Clouds
  • Clear skies
Becoming Dec-16 @ 08:00 - Dec-16 @ 12:00
Wind Visibility
40° at 8 knots Greater than 6 miles
Clouds
  • Clear skies
Becoming Dec-16 @ 12:00 - Dec-16 @ 18:00
Wind Visibility
80° at 8 knots Greater than 6 miles
Clouds
  • Clear skies